sensor_id;sensor_type;location;lat;lon;timestamp;temperature;humidity
31003;DHT22;23051;-6.372;106.786;2023-09-19T00:01:14;28.80;67.50
31003;DHT22;23051;-6.372;106.786;2023-09-19T00:03:16;28.80;67.40
31003;DHT22;23051;-6.372;106.786;2023-09-19T00:05:17;28.80;67.30
31003;DHT22;23051;-6.372;106.786;2023-09-19T00:07:18;28.80;67.30
31003;DHT22;23051;-6.372;106.786;2023-09-19T00:09:21;28.90;67.40
31003;DHT22;23051;-6.372;106.786;2023-09-19T00:11:27;28.90;67.30
31003;DHT22;23051;-6.372;106.786;2023-09-19T00:13:29;28.90;67.20
31003;DHT22;23051;-6.372;106.786;2023-09-19T00:15:35;28.90;67.20
31003;DHT22;23051;-6.372;106.786;2023-09-19T00:17:38;29.00;67.20
31003;DHT22;23051;-6.372;106.786;2023-09-19T00:19:41;29.00;67.10
31003;DHT22;23051;-6.372;106.786;2023-09-19T00:21:45;29.00;67.00
31003;DHT22;23051;-6.372;106.786;2023-09-19T00:23:50;29.00;67.00
31003;DHT22;23051;-6.372;106.786;2023-09-19T00:25:55;29.10;67.00
31003;DHT22;23051;-6.372;106.786;2023-09-19T00:28:04;29.10;67.00
31003;DHT22;23051;-6.372;106.786;2023-09-19T00:30:08;29.10;66.90
31003;DHT22;23051;-6.372;106.786;2023-09-19T00:32:16;29.10;66.80
31003;DHT22;23051;-6.372;106.786;2023-09-19T00:34:20;29.10;66.80
31003;DHT22;23051;-6.372;106.786;2023-09-19T00:36:23;29.10;66.80
31003;DHT22;23051;-6.372;106.786;2023-09-19T00:38:26;29.20;66.80
31003;DHT22;23051;-6.372;106.786;2023-09-19T00:40:28;29.20;66.70
31003;DHT22;23051;-6.372;106.786;2023-09-19T00:42:30;29.30;66.70
31003;DHT22;23051;-6.372;106.786;2023-09-19T00:44:31;29.30;66.60
31003;DHT22;23051;-6.372;106.786;2023-09-19T00:46:35;29.30;66.60
31003;DHT22;23051;-6.372;106.786;2023-09-19T00:48:40;29.30;66.50
31003;DHT22;23051;-6.372;106.786;2023-09-19T00:50:45;29.30;66.50
31003;DHT22;23051;-6.372;106.786;2023-09-19T00:52:48;29.40;66.60
31003;DHT22;23051;-6.372;106.786;2023-09-19T00:54:52;29.40;66.50
31003;DHT22;23051;-6.372;106.786;2023-09-19T00:56:55;29.50;66.50
31003;DHT22;23051;-6.372;106.786;2023-09-19T00:58:59;29.50;66.40
31003;DHT22;23051;-6.372;106.786;2023-09-19T01:01:02;29.50;66.20
31003;DHT22;23051;-6.372;106.786;2023-09-19T01:03:07;29.60;66.20
31003;DHT22;23051;-6.372;106.786;2023-09-19T01:05:09;29.60;66.20
31003;DHT22;23051;-6.372;106.786;2023-09-19T01:07:15;29.60;66.20
31003;DHT22;23051;-6.372;106.786;2023-09-19T01:09:17;29.60;66.10
31003;DHT22;23051;-6.372;106.786;2023-09-19T01:11:43;29.70;66.10
31003;DHT22;23051;-6.372;106.786;2023-09-19T01:15:49;29.80;66.00
31003;DHT22;23051;-6.372;106.786;2023-09-19T01:17:57;29.80;65.80
31003;DHT22;23051;-6.372;106.786;2023-09-19T01:22:12;29.90;65.80
31003;DHT22;23051;-6.372;106.786;2023-09-19T01:24:45;29.90;65.70
31003;DHT22;23051;-6.372;106.786;2023-09-19T01:30:47;30.00;65.50
31003;DHT22;23051;-6.372;106.786;2023-09-19T01:32:54;30.10;65.50
31003;DHT22;23051;-6.372;106.786;2023-09-19T01:34:55;30.20;65.50
31003;DHT22;23051;-6.372;106.786;2023-09-19T01:37:00;30.20;65.40
31003;DHT22;23051;-6.372;106.786;2023-09-19T01:39:04;30.20;66.20
31003;DHT22;23051;-6.372;106.786;2023-09-19T01:41:11;30.20;65.40
31003;DHT22;23051;-6.372;106.786;2023-09-19T01:45:22;30.20;65.30
31003;DHT22;23051;-6.372;106.786;2023-09-19T01:49:40;30.30;65.30
31003;DHT22;23051;-6.372;106.786;2023-09-19T01:51:46;30.30;65.30
31003;DHT22;23051;-6.372;106.786;2023-09-19T01:55:57;30.40;65.20
31003;DHT22;23051;-6.372;106.786;2023-09-19T01:58:04;30.40;65.10
31003;DHT22;23051;-6.372;106.786;2023-09-19T02:00:08;30.40;65.10
31003;DHT22;23051;-6.372;106.786;2023-09-19T02:02:12;30.50;65.00
31003;DHT22;23051;-6.372;106.786;2023-09-19T02:04:14;30.50;64.80
31003;DHT22;23051;-6.372;106.786;2023-09-19T02:06:16;30.60;64.80
31003;DHT22;23051;-6.372;106.786;2023-09-19T02:08:19;30.70;64.70
31003;DHT22;23051;-6.372;106.786;2023-09-19T02:10:20;30.70;64.50
31003;DHT22;23051;-6.372;106.786;2023-09-19T02:12:21;30.80;64.40
31003;DHT22;23051;-6.372;106.786;2023-09-19T02:14:22;30.90;64.30
31003;DHT22;23051;-6.372;106.786;2023-09-19T02:16:25;31.00;64.20
31003;DHT22;23051;-6.372;106.786;2023-09-19T02:18:27;31.10;64.10
31003;DHT22;23051;-6.372;106.786;2023-09-19T02:20:31;31.10;63.90
31003;DHT22;23051;-6.372;106.786;2023-09-19T02:22:32;31.10;63.90
31003;DHT22;23051;-6.372;106.786;2023-09-19T02:24:33;31.20;63.90
31003;DHT22;23051;-6.372;106.786;2023-09-19T02:26:37;31.30;63.80
31003;DHT22;23051;-6.372;106.786;2023-09-19T02:28:38;31.40;63.70
31003;DHT22;23051;-6.372;106.786;2023-09-19T02:30:40;31.40;63.60
31003;DHT22;23051;-6.372;106.786;2023-09-19T02:32:45;31.50;63.50
31003;DHT22;23051;-6.372;106.786;2023-09-19T02:34:47;31.60;63.40
31003;DHT22;23051;-6.372;106.786;2023-09-19T02:36:48;31.60;63.20
31003;DHT22;23051;-6.372;106.786;2023-09-19T02:38:49;31.60;63.20
31003;DHT22;23051;-6.372;106.786;2023-09-19T02:40:50;31.70;63.20
31003;DHT22;23051;-6.372;106.786;2023-09-19T02:42:53;31.60;63.30
31003;DHT22;23051;-6.372;106.786;2023-09-19T02:44:54;31.60;63.40
31003;DHT22;23051;-6.372;106.786;2023-09-19T02:46:59;31.60;63.50
31003;DHT22;23051;-6.372;106.786;2023-09-19T02:49:03;31.60;63.60
31003;DHT22;23051;-6.372;106.786;2023-09-19T02:51:07;31.60;63.50
31003;DHT22;23051;-6.372;106.786;2023-09-19T02:53:08;31.70;63.60
31003;DHT22;23051;-6.372;106.786;2023-09-19T02:55:13;31.70;63.40
31003;DHT22;23051;-6.372;106.786;2023-09-19T02:57:18;31.70;63.40
31003;DHT22;23051;-6.372;106.786;2023-09-19T02:59:20;31.70;63.50
31003;DHT22;23051;-6.372;106.786;2023-09-19T03:01:21;31.70;63.50
31003;DHT22;23051;-6.372;106.786;2023-09-19T03:03:22;31.70;63.60
31003;DHT22;23051;-6.372;106.786;2023-09-19T03:05:24;31.70;63.60
31003;DHT22;23051;-6.372;106.786;2023-09-19T03:07:27;31.70;63.70
31003;DHT22;23051;-6.372;106.786;2023-09-19T03:09:28;31.70;63.70
31003;DHT22;23051;-6.372;106.786;2023-09-19T03:11:29;31.70;63.60
31003;DHT22;23051;-6.372;106.786;2023-09-19T03:13:31;31.80;64.20
31003;DHT22;23051;-6.372;106.786;2023-09-19T03:15:32;32.00;63.20
31003;DHT22;23051;-6.372;106.786;2023-09-19T03:17:33;32.00;63.00
31003;DHT22;23051;-6.372;106.786;2023-09-19T03:19:36;32.10;63.00
31003;DHT22;23051;-6.372;106.786;2023-09-19T03:21:39;32.10;63.00
31003;DHT22;23051;-6.372;106.786;2023-09-19T03:23:40;32.30;62.80
31003;DHT22;23051;-6.372;106.786;2023-09-19T03:25:43;32.30;62.60
31003;DHT22;23051;-6.372;106.786;2023-09-19T03:27:48;32.30;62.50
31003;DHT22;23051;-6.372;106.786;2023-09-19T03:29:49;32.40;62.60
31003;DHT22;23051;-6.372;106.786;2023-09-19T03:31:50;32.40;62.60
31003;DHT22;23051;-6.372;106.786;2023-09-19T03:33:51;32.40;62.60
31003;DHT22;23051;-6.372;106.786;2023-09-19T03:35:53;32.50;62.60
31003;DHT22;23051;-6.372;106.786;2023-09-19T03:37:54;32.60;62.50
31003;DHT22;23051;-6.372;106.786;2023-09-19T03:39:55;32.60;62.20
31003;DHT22;23051;-6.372;106.786;2023-09-19T03:41:59;32.70;62.10
31003;DHT22;23051;-6.372;106.786;2023-09-19T03:44:00;32.70;62.10
31003;DHT22;23051;-6.372;106.786;2023-09-19T03:46:01;32.70;62.10
31003;DHT22;23051;-6.372;106.786;2023-09-19T03:48:12;32.70;62.20
31003;DHT22;23051;-6.372;106.786;2023-09-19T03:50:15;32.70;62.20
31003;DHT22;23051;-6.372;106.786;2023-09-19T03:52:18;32.70;62.30
31003;DHT22;23051;-6.372;106.786;2023-09-19T03:54:19;32.80;62.30
31003;DHT22;23051;-6.372;106.786;2023-09-19T03:56:20;32.80;62.20
31003;DHT22;23051;-6.372;106.786;2023-09-19T03:58:21;32.90;62.10
31003;DHT22;23051;-6.372;106.786;2023-09-19T04:00:22;33.00;61.90
31003;DHT22;23051;-6.372;106.786;2023-09-19T04:02:27;33.10;61.80
31003;DHT22;23051;-6.372;106.786;2023-09-19T04:04:33;33.10;61.70
31003;DHT22;23051;-6.372;106.786;2023-09-19T04:06:37;33.20;61.60
31003;DHT22;23051;-6.372;106.786;2023-09-19T04:08:38;33.30;61.40
31003;DHT22;23051;-6.372;106.786;2023-09-19T04:10:41;33.40;61.30
31003;DHT22;23051;-6.372;106.786;2023-09-19T04:14:46;33.40;61.30
31003;DHT22;23051;-6.372;106.786;2023-09-19T04:16:47;33.40;61.30
31003;DHT22;23051;-6.372;106.786;2023-09-19T04:18:51;33.40;61.40
31003;DHT22;23051;-6.372;106.786;2023-09-19T04:22:56;33.40;61.30
31003;DHT22;23051;-6.372;106.786;2023-09-19T04:25:03;33.50;61.30
31003;DHT22;23051;-6.372;106.786;2023-09-19T04:27:06;33.50;61.30
31003;DHT22;23051;-6.372;106.786;2023-09-19T04:29:08;33.40;61.40
31003;DHT22;23051;-6.372;106.786;2023-09-19T04:31:11;33.50;61.50
31003;DHT22;23051;-6.372;106.786;2023-09-19T04:33:17;33.50;61.60
31003;DHT22;23051;-6.372;106.786;2023-09-19T04:35:18;33.50;61.60
31003;DHT22;23051;-6.372;106.786;2023-09-19T04:37:22;33.50;61.60
31003;DHT22;23051;-6.372;106.786;2023-09-19T04:39:27;33.50;61.60
31003;DHT22;23051;-6.372;106.786;2023-09-19T04:41:29;33.40;61.70
31003;DHT22;23051;-6.372;106.786;2023-09-19T04:43:30;33.40;61.70
31003;DHT22;23051;-6.372;106.786;2023-09-19T04:45:36;33.40;61.70
31003;DHT22;23051;-6.372;106.786;2023-09-19T04:47:41;33.40;61.70
31003;DHT22;23051;-6.372;106.786;2023-09-19T04:49:46;33.50;61.70
31003;DHT22;23051;-6.372;106.786;2023-09-19T04:51:47;33.60;61.60
31003;DHT22;23051;-6.372;106.786;2023-09-19T04:53:48;33.60;61.50
31003;DHT22;23051;-6.372;106.786;2023-09-19T04:55:51;33.60;61.50
31003;DHT22;23051;-6.372;106.786;2023-09-19T04:57:56;33.60;61.50
31003;DHT22;23051;-6.372;106.786;2023-09-19T04:59:57;33.70;61.50
31003;DHT22;23051;-6.372;106.786;2023-09-19T05:02:01;33.70;61.40
31003;DHT22;23051;-6.372;106.786;2023-09-19T05:04:02;33.80;61.30
31003;DHT22;23051;-6.372;106.786;2023-09-19T05:06:14;33.90;61.20
31003;DHT22;23051;-6.372;106.786;2023-09-19T05:08:15;34.00;61.00
31003;DHT22;23051;-6.372;106.786;2023-09-19T05:10:16;33.90;61.10
31003;DHT22;23051;-6.372;106.786;2023-09-19T05:12:20;33.80;61.40
31003;DHT22;23051;-6.372;106.786;2023-09-19T05:14:22;33.60;61.80
31003;DHT22;23051;-6.372;106.786;2023-09-19T05:16:26;33.50;62.10
31003;DHT22;23051;-6.372;106.786;2023-09-19T05:18:30;33.40;62.20
31003;DHT22;23051;-6.372;106.786;2023-09-19T05:20:34;33.50;62.30
31003;DHT22;23051;-6.372;106.786;2023-09-19T05:22:39;33.60;62.10
31003;DHT22;23051;-6.372;106.786;2023-09-19T05:24:41;33.60;61.90
31003;DHT22;23051;-6.372;106.786;2023-09-19T05:26:42;33.80;61.80
31003;DHT22;23051;-6.372;106.786;2023-09-19T05:28:43;33.90;61.50
31003;DHT22;23051;-6.372;106.786;2023-09-19T05:30:44;34.00;61.30
31003;DHT22;23051;-6.372;106.786;2023-09-19T05:32:46;34.10;61.20
31003;DHT22;23051;-6.372;106.786;2023-09-19T05:34:49;34.30;60.80
31003;DHT22;23051;-6.372;106.786;2023-09-19T05:36:54;34.40;60.50
31003;DHT22;23051;-6.372;106.786;2023-09-19T05:38:55;34.50;60.40
31003;DHT22;23051;-6.372;106.786;2023-09-19T05:40:58;34.50;60.30
31003;DHT22;23051;-6.372;106.786;2023-09-19T05:42:59;34.50;60.30
31003;DHT22;23051;-6.372;106.786;2023-09-19T05:45:02;34.50;60.40
31003;DHT22;23051;-6.372;106.786;2023-09-19T05:47:07;34.50;60.50
31003;DHT22;23051;-6.372;106.786;2023-09-19T05:49:11;34.40;60.50
31003;DHT22;23051;-6.372;106.786;2023-09-19T05:51:13;34.40;60.60
31003;DHT22;23051;-6.372;106.786;2023-09-19T05:53:14;34.40;60.60
31003;DHT22;23051;-6.372;106.786;2023-09-19T05:55:15;34.40;60.70
31003;DHT22;23051;-6.372;106.786;2023-09-19T05:57:16;34.40;60.80
31003;DHT22;23051;-6.372;106.786;2023-09-19T05:59:17;34.30;61.00
31003;DHT22;23051;-6.372;106.786;2023-09-19T06:01:19;34.30;61.00
31003;DHT22;23051;-6.372;106.786;2023-09-19T06:03:23;34.30;61.10
31003;DHT22;23051;-6.372;106.786;2023-09-19T06:05:24;34.30;62.00
31003;DHT22;23051;-6.372;106.786;2023-09-19T06:07:29;34.30;61.10
31003;DHT22;23051;-6.372;106.786;2023-09-19T06:09:36;34.30;61.10
31003;DHT22;23051;-6.372;106.786;2023-09-19T06:11:45;34.30;61.20
31003;DHT22;23051;-6.372;106.786;2023-09-19T06:13:46;34.20;61.30
31003;DHT22;23051;-6.372;106.786;2023-09-19T06:15:56;34.20;61.40
31003;DHT22;23051;-6.372;106.786;2023-09-19T06:18:01;34.10;61.60
31003;DHT22;23051;-6.372;106.786;2023-09-19T06:20:06;34.00;61.90
31003;DHT22;23051;-6.372;106.786;2023-09-19T06:24:11;33.80;62.20
31003;DHT22;23051;-6.372;106.786;2023-09-19T06:26:15;33.80;62.40
31003;DHT22;23051;-6.372;106.786;2023-09-19T06:28:16;33.70;62.40
31003;DHT22;23051;-6.372;106.786;2023-09-19T06:30:26;33.60;62.50
31003;DHT22;23051;-6.372;106.786;2023-09-19T06:32:30;33.60;62.50
31003;DHT22;23051;-6.372;106.786;2023-09-19T06:34:36;33.60;62.60
31003;DHT22;23051;-6.372;106.786;2023-09-19T06:36:44;33.60;62.60
31003;DHT22;23051;-6.372;106.786;2023-09-19T06:38:46;33.50;62.60
31003;DHT22;23051;-6.372;106.786;2023-09-19T06:40:51;33.50;62.70
31003;DHT22;23051;-6.372;106.786;2023-09-19T06:42:57;33.50;62.70
31003;DHT22;23051;-6.372;106.786;2023-09-19T06:44:58;33.60;62.80
31003;DHT22;23051;-6.372;106.786;2023-09-19T06:47:02;33.50;62.60
31003;DHT22;23051;-6.372;106.786;2023-09-19T06:49:03;33.50;62.70
31003;DHT22;23051;-6.372;106.786;2023-09-19T06:51:10;33.50;62.60
31003;DHT22;23051;-6.372;106.786;2023-09-19T06:53:16;33.50;62.70
31003;DHT22;23051;-6.372;106.786;2023-09-19T06:55:21;33.50;62.60
31003;DHT22;23051;-6.372;106.786;2023-09-19T06:57:25;33.40;62.80
31003;DHT22;23051;-6.372;106.786;2023-09-19T06:59:26;33.30;63.30
31003;DHT22;23051;-6.372;106.786;2023-09-19T07:01:28;33.20;63.70
31003;DHT22;23051;-6.372;106.786;2023-09-19T07:03:29;33.10;63.70
31003;DHT22;23051;-6.372;106.786;2023-09-19T07:05:30;33.00;63.90
31003;DHT22;23051;-6.372;106.786;2023-09-19T07:07:32;32.90;64.00
31003;DHT22;23051;-6.372;106.786;2023-09-19T07:09:35;32.60;64.50
31003;DHT22;23051;-6.372;106.786;2023-09-19T07:11:37;32.40;65.20
31003;DHT22;23051;-6.372;106.786;2023-09-19T07:13:38;32.00;66.00
31003;DHT22;23051;-6.372;106.786;2023-09-19T07:15:40;31.60;66.80
31003;DHT22;23051;-6.372;106.786;2023-09-19T07:17:46;31.20;67.80
31003;DHT22;23051;-6.372;106.786;2023-09-19T07:19:48;30.90;68.70
31003;DHT22;23051;-6.372;106.786;2023-09-19T07:21:52;30.60;69.20
31003;DHT22;23051;-6.372;106.786;2023-09-19T07:23:56;30.50;69.60
31003;DHT22;23051;-6.372;106.786;2023-09-19T07:25:57;30.40;69.60
31003;DHT22;23051;-6.372;106.786;2023-09-19T07:28:01;30.30;69.60
31003;DHT22;23051;-6.372;106.786;2023-09-19T07:30:05;30.20;69.70
31003;DHT22;23051;-6.372;106.786;2023-09-19T07:32:06;30.00;70.20
31003;DHT22;23051;-6.372;106.786;2023-09-19T07:34:08;29.70;70.80
31003;DHT22;23051;-6.372;106.786;2023-09-19T07:36:11;29.40;71.40
31003;DHT22;23051;-6.372;106.786;2023-09-19T07:38:12;29.20;72.10
31003;DHT22;23051;-6.372;106.786;2023-09-19T07:40:13;28.90;72.60
31003;DHT22;23051;-6.372;106.786;2023-09-19T07:42:15;28.70;73.10
31003;DHT22;23051;-6.372;106.786;2023-09-19T07:44:18;28.50;73.50
31003;DHT22;23051;-6.372;106.786;2023-09-19T07:46:19;28.40;73.70
31003;DHT22;23051;-6.372;106.786;2023-09-19T07:48:25;28.40;73.60
31003;DHT22;23051;-6.372;106.786;2023-09-19T07:50:28;28.50;73.30
31003;DHT22;23051;-6.372;106.786;2023-09-19T07:54:32;28.50;72.70
31003;DHT22;23051;-6.372;106.786;2023-09-19T07:56:38;28.50;72.60
31003;DHT22;23051;-6.372;106.786;2023-09-19T07:58:41;28.50;72.50
31003;DHT22;23051;-6.372;106.786;2023-09-19T08:00:46;28.50;72.40
31003;DHT22;23051;-6.372;106.786;2023-09-19T08:02:50;28.50;72.40
31003;DHT22;23051;-6.372;106.786;2023-09-19T08:04:54;28.50;72.30
31003;DHT22;23051;-6.372;106.786;2023-09-19T08:06:56;28.50;72.30
31003;DHT22;23051;-6.372;106.786;2023-09-19T08:09:01;28.50;72.30
31003;DHT22;23051;-6.372;106.786;2023-09-19T08:13:15;28.50;72.10
31003;DHT22;23051;-6.372;106.786;2023-09-19T08:15:19;28.50;72.10
31003;DHT22;23051;-6.372;106.786;2023-09-19T08:17:22;28.50;72.00
31003;DHT22;23051;-6.372;106.786;2023-09-19T08:19:25;28.50;71.90
31003;DHT22;23051;-6.372;106.786;2023-09-19T08:21:29;28.50;71.70
31003;DHT22;23051;-6.372;106.786;2023-09-19T08:23:33;28.60;71.60
31003;DHT22;23051;-6.372;106.786;2023-09-19T08:25:34;28.60;71.40
31003;DHT22;23051;-6.372;106.786;2023-09-19T08:27:39;28.70;71.40
31003;DHT22;23051;-6.372;106.786;2023-09-19T08:29:44;28.80;72.10
31003;DHT22;23051;-6.372;106.786;2023-09-19T08:31:45;28.70;71.10
31003;DHT22;23051;-6.372;106.786;2023-09-19T08:33:50;28.80;71.00
31003;DHT22;23051;-6.372;106.786;2023-09-19T08:35:52;28.80;70.90
31003;DHT22;23051;-6.372;106.786;2023-09-19T08:39:55;28.90;70.70
31003;DHT22;23051;-6.372;106.786;2023-09-19T08:41:58;28.90;70.60
31003;DHT22;23051;-6.372;106.786;2023-09-19T08:44:02;28.90;70.50
31003;DHT22;23051;-6.372;106.786;2023-09-19T08:50:11;29.00;70.30
31003;DHT22;23051;-6.372;106.786;2023-09-19T08:52:20;29.00;70.30
31003;DHT22;23051;-6.372;106.786;2023-09-19T08:54:22;29.00;70.30
31003;DHT22;23051;-6.372;106.786;2023-09-19T08:56:26;29.00;70.30
31003;DHT22;23051;-6.372;106.786;2023-09-19T09:00:36;29.00;70.30
31003;DHT22;23051;-6.372;106.786;2023-09-19T09:02:43;29.00;70.30
31003;DHT22;23051;-6.372;106.786;2023-09-19T09:04:46;29.00;70.30
31003;DHT22;23051;-6.372;106.786;2023-09-19T09:06:50;29.00;70.30
31003;DHT22;23051;-6.372;106.786;2023-09-19T09:08:56;29.00;70.40
31003;DHT22;23051;-6.372;106.786;2023-09-19T09:10:58;28.90;70.30
31003;DHT22;23051;-6.372;106.786;2023-09-19T09:13:01;28.90;70.40
31003;DHT22;23051;-6.372;106.786;2023-09-19T09:15:07;28.90;70.40
31003;DHT22;23051;-6.372;106.786;2023-09-19T09:17:12;28.90;70.50
31003;DHT22;23051;-6.372;106.786;2023-09-19T09:19:15;28.90;70.50
31003;DHT22;23051;-6.372;106.786;2023-09-19T09:21:25;28.90;70.40
31003;DHT22;23051;-6.372;106.786;2023-09-19T09:23:28;28.90;70.40
31003;DHT22;23051;-6.372;106.786;2023-09-19T09:27:33;28.80;70.50
31003;DHT22;23051;-6.372;106.786;2023-09-19T09:31:38;28.80;70.60
31003;DHT22;23051;-6.372;106.786;2023-09-19T09:33:43;28.80;70.60
31003;DHT22;23051;-6.372;106.786;2023-09-19T09:37:59;28.80;70.50
31003;DHT22;23051;-6.372;106.786;2023-09-19T09:40:09;28.80;70.50
31003;DHT22;23051;-6.372;106.786;2023-09-19T09:42:21;28.90;70.50
31003;DHT22;23051;-6.372;106.786;2023-09-19T09:44:32;28.90;70.50
31003;DHT22;23051;-6.372;106.786;2023-09-19T09:46:33;28.90;70.50
31003;DHT22;23051;-6.372;106.786;2023-09-19T09:48:39;28.90;70.50
31003;DHT22;23051;-6.372;106.786;2023-09-19T09:50:48;28.90;70.50
31003;DHT22;23051;-6.372;106.786;2023-09-19T09:52:49;28.90;70.50
31003;DHT22;23051;-6.372;106.786;2023-09-19T09:59:02;28.80;70.50
31003;DHT22;23051;-6.372;106.786;2023-09-19T10:01:06;28.80;70.50
31003;DHT22;23051;-6.372;106.786;2023-09-19T10:03:43;28.80;70.60
31003;DHT22;23051;-6.372;106.786;2023-09-19T10:05:32;28.70;70.70
31003;DHT22;23051;-6.372;106.786;2023-09-19T10:07:41;28.70;70.70
31003;DHT22;23051;-6.372;106.786;2023-09-19T10:09:49;28.70;70.70
31003;DHT22;23051;-6.372;106.786;2023-09-19T10:12:16;28.70;70.70
31003;DHT22;23051;-6.372;106.786;2023-09-19T10:14:14;28.70;70.70
31003;DHT22;23051;-6.372;106.786;2023-09-19T10:16:16;28.70;70.70
31003;DHT22;23051;-6.372;106.786;2023-09-19T10:18:21;28.70;70.70
31003;DHT22;23051;-6.372;106.786;2023-09-19T10:20:22;28.70;70.70
31003;DHT22;23051;-6.372;106.786;2023-09-19T10:22:26;28.70;70.70
31003;DHT22;23051;-6.372;106.786;2023-09-19T10:24:28;28.70;70.70
31003;DHT22;23051;-6.372;106.786;2023-09-19T10:26:29;28.70;70.80
31003;DHT22;23051;-6.372;106.786;2023-09-19T10:28:33;28.70;70.80
31003;DHT22;23051;-6.372;106.786;2023-09-19T10:30:48;28.70;70.90
31003;DHT22;23051;-6.372;106.786;2023-09-19T10:32:54;28.60;70.80
31003;DHT22;23051;-6.372;106.786;2023-09-19T10:34:56;28.60;70.80
31003;DHT22;23051;-6.372;106.786;2023-09-19T10:36:58;28.70;70.90
31003;DHT22;23051;-6.372;106.786;2023-09-19T10:39:03;28.70;70.90
31003;DHT22;23051;-6.372;106.786;2023-09-19T10:41:07;28.70;70.90
31003;DHT22;23051;-6.372;106.786;2023-09-19T10:43:14;28.60;70.90
31003;DHT22;23051;-6.372;106.786;2023-09-19T10:45:17;28.60;70.90
31003;DHT22;23051;-6.372;106.786;2023-09-19T10:47:20;28.60;70.90
31003;DHT22;23051;-6.372;106.786;2023-09-19T10:49:25;28.60;70.90
31003;DHT22;23051;-6.372;106.786;2023-09-19T10:51:29;28.60;71.00
31003;DHT22;23051;-6.372;106.786;2023-09-19T10:55:40;28.50;71.10
31003;DHT22;23051;-6.372;106.786;2023-09-19T10:57:44;28.50;71.10
31003;DHT22;23051;-6.372;106.786;2023-09-19T11:03:52;28.40;71.20
31003;DHT22;23051;-6.372;106.786;2023-09-19T11:06:17;28.40;71.30
31003;DHT22;23051;-6.372;106.786;2023-09-19T11:08:19;28.40;71.30
31003;DHT22;23051;-6.372;106.786;2023-09-19T11:14:29;28.40;71.40
31003;DHT22;23051;-6.372;106.786;2023-09-19T11:16:31;28.40;71.40
31003;DHT22;23051;-6.372;106.786;2023-09-19T11:20:42;28.40;71.40
31003;DHT22;23051;-6.372;106.786;2023-09-19T11:25:01;28.30;71.30
31003;DHT22;23051;-6.372;106.786;2023-09-19T11:27:18;28.40;71.40
31003;DHT22;23051;-6.372;106.786;2023-09-19T11:33:31;28.30;71.50
31003;DHT22;23051;-6.372;106.786;2023-09-19T11:40:18;28.70;70.80
31003;DHT22;23051;-6.372;106.786;2023-09-19T11:42:01;28.90;70.30
31003;DHT22;23051;-6.372;106.786;2023-09-19T11:46:28;29.30;69.50
31003;DHT22;23051;-6.372;106.786;2023-09-19T11:48:32;29.40;69.20
31003;DHT22;23051;-6.372;106.786;2023-09-19T11:50:33;29.50;69.00
31003;DHT22;23051;-6.372;106.786;2023-09-19T11:52:38;29.60;68.90
31003;DHT22;23051;-6.372;106.786;2023-09-19T11:54:40;29.60;68.80
31003;DHT22;23051;-6.372;106.786;2023-09-19T11:56:48;29.70;68.80
31003;DHT22;23051;-6.372;106.786;2023-09-19T11:58:54;29.70;68.70
31003;DHT22;23051;-6.372;106.786;2023-09-19T12:01:01;29.70;68.60
31003;DHT22;23051;-6.372;106.786;2023-09-19T12:03:08;29.70;68.60
31003;DHT22;23051;-6.372;106.786;2023-09-19T12:05:11;29.70;68.60
31003;DHT22;23051;-6.372;106.786;2023-09-19T12:07:15;29.80;68.60
31003;DHT22;23051;-6.372;106.786;2023-09-19T12:09:19;29.80;68.60
31003;DHT22;23051;-6.372;106.786;2023-09-19T12:11:21;29.80;68.60
31003;DHT22;23051;-6.372;106.786;2023-09-19T12:13:25;29.80;68.60
31003;DHT22;23051;-6.372;106.786;2023-09-19T12:19:33;29.90;68.60
31003;DHT22;23051;-6.372;106.786;2023-09-19T12:21:34;29.90;68.60
31003;DHT22;23051;-6.372;106.786;2023-09-19T12:23:35;29.90;68.50
31003;DHT22;23051;-6.372;106.786;2023-09-19T12:27:47;29.90;68.40
31003;DHT22;23051;-6.372;106.786;2023-09-19T12:29:50;29.90;68.50
31003;DHT22;23051;-6.372;106.786;2023-09-19T12:31:57;29.90;68.50
31003;DHT22;23051;-6.372;106.786;2023-09-19T12:33:59;30.00;68.50
31003;DHT22;23051;-6.372;106.786;2023-09-19T12:36:18;29.90;68.50
31003;DHT22;23051;-6.372;106.786;2023-09-19T12:38:22;29.90;68.50
31003;DHT22;23051;-6.372;106.786;2023-09-19T12:40:25;29.90;68.60
31003;DHT22;23051;-6.372;106.786;2023-09-19T12:42:30;29.90;68.60
31003;DHT22;23051;-6.372;106.786;2023-09-19T12:44:37;29.90;68.60
31003;DHT22;23051;-6.372;106.786;2023-09-19T12:46:39;30.00;68.70
31003;DHT22;23051;-6.372;106.786;2023-09-19T12:48:40;29.90;68.60
31003;DHT22;23051;-6.372;106.786;2023-09-19T12:52:49;29.90;68.60
31003;DHT22;23051;-6.372;106.786;2023-09-19T12:54:53;30.00;68.60
31003;DHT22;23051;-6.372;106.786;2023-09-19T12:56:57;30.00;68.60
31003;DHT22;23051;-6.372;106.786;2023-09-19T12:58:59;30.00;68.60
31003;DHT22;23051;-6.372;106.786;2023-09-19T13:01:11;30.00;68.60
31003;DHT22;23051;-6.372;106.786;2023-09-19T13:05:38;30.00;68.50
31003;DHT22;23051;-6.372;106.786;2023-09-19T13:07:43;30.00;68.50
31003;DHT22;23051;-6.372;106.786;2023-09-19T13:11:52;30.00;68.50
31003;DHT22;23051;-6.372;106.786;2023-09-19T13:15:56;30.00;68.50
31003;DHT22;23051;-6.372;106.786;2023-09-19T13:17:58;30.00;68.60
31003;DHT22;23051;-6.372;106.786;2023-09-19T13:20:05;30.00;68.60
31003;DHT22;23051;-6.372;106.786;2023-09-19T13:26:18;30.10;68.70
31003;DHT22;23051;-6.372;106.786;2023-09-19T13:28:20;30.00;68.60
31003;DHT22;23051;-6.372;106.786;2023-09-19T13:30:24;30.00;68.70
31003;DHT22;23051;-6.372;106.786;2023-09-19T13:32:32;30.00;69.60
31003;DHT22;23051;-6.372;106.786;2023-09-19T13:34:33;29.90;68.80
31003;DHT22;23051;-6.372;106.786;2023-09-19T13:36:34;30.00;69.00
31003;DHT22;23051;-6.372;106.786;2023-09-19T13:38:37;29.90;69.00
31003;DHT22;23051;-6.372;106.786;2023-09-19T13:40:41;29.90;69.00
31003;DHT22;23051;-6.372;106.786;2023-09-19T13:42:47;29.90;69.00
31003;DHT22;23051;-6.372;106.786;2023-09-19T13:44:51;29.80;69.00
31003;DHT22;23051;-6.372;106.786;2023-09-19T13:46:55;29.80;69.10
31003;DHT22;23051;-6.372;106.786;2023-09-19T13:49:01;29.80;69.20
31003;DHT22;23051;-6.372;106.786;2023-09-19T13:51:04;29.80;69.20
31003;DHT22;23051;-6.372;106.786;2023-09-19T13:53:05;29.80;69.30
31003;DHT22;23051;-6.372;106.786;2023-09-19T13:55:08;29.90;69.20
31003;DHT22;23051;-6.372;106.786;2023-09-19T13:57:10;29.90;69.20
31003;DHT22;23051;-6.372;106.786;2023-09-19T13:59:12;29.90;69.10
31003;DHT22;23051;-6.372;106.786;2023-09-19T14:01:13;29.90;69.00
31003;DHT22;23051;-6.372;106.786;2023-09-19T14:03:21;30.00;68.90
31003;DHT22;23051;-6.372;106.786;2023-09-19T14:07:23;30.00;68.80
31003;DHT22;23051;-6.372;106.786;2023-09-19T14:09:27;30.00;68.80